createdAt,value
2022-09-04T00:03:40.421Z,49.30
2022-09-04T00:09:03.334Z,49.20
2022-09-04T00:14:11.470Z,49.60
2022-09-04T00:19:22.181Z,49.60
2022-09-04T00:24:30.957Z,50.20
2022-09-04T00:29:45.232Z,50.50
2022-09-04T00:35:05.276Z,50.80
2022-09-04T00:40:20.359Z,51.60
2022-09-04T00:46:04.137Z,51.40
2022-09-04T00:51:28.831Z,52.50
2022-09-04T00:56:55.613Z,52.70
2022-09-04T01:02:09.002Z,52.60
2022-09-04T01:07:33.420Z,52.60
2022-09-04T01:12:42.796Z,52.70
2022-09-04T01:17:57.433Z,52.90
2022-09-04T01:23:16.511Z,53.40
2022-09-04T01:28:28.076Z,53.30
2022-09-04T01:33:37.493Z,53.30
2022-09-04T01:38:47.322Z,53.20
2022-09-04T01:43:52.026Z,54.20
2022-09-04T01:49:03.617Z,54.40
2022-09-04T01:54:25.805Z,54.70
2022-09-04T01:59:37.261Z,54.60
2022-09-04T02:04:48.701Z,54.20
2022-09-04T02:10:01.999Z,54.60
2022-09-04T02:15:12.685Z,54.60
2022-09-04T02:20:24.366Z,54.80
2022-09-04T02:25:31.780Z,54.70
2022-09-04T02:30:43.505Z,54.20
2022-09-04T02:35:52.911Z,55.00
2022-09-04T02:41:01.318Z,54.80
2022-09-04T02:46:14.037Z,54.90
2022-09-04T02:51:32.952Z,55.00
2022-09-04T02:56:48.882Z,55.70
2022-09-04T03:01:57.019Z,55.30
2022-09-04T03:07:10.051Z,56.00
2022-09-04T03:12:32.518Z,56.00
2022-09-04T03:17:46.046Z,55.40
2022-09-04T03:22:55.901Z,55.20
2022-09-04T03:27:58.534Z,54.80
2022-09-04T03:33:11.904Z,54.40
2022-09-04T03:38:21.843Z,54.70
2022-09-04T03:43:47.793Z,54.60
2022-09-04T03:49:06.779Z,54.80
2022-09-04T03:54:21.361Z,54.80
2022-09-04T03:59:50.358Z,54.80
2022-09-04T04:05:15.257Z,55.10
2022-09-04T04:10:29.344Z,55.30
2022-09-04T04:15:44.949Z,56.40
2022-09-04T04:21:01.490Z,56.10
2022-09-04T04:26:10.784Z,56.80
2022-09-04T04:31:23.749Z,57.80
2022-09-04T04:36:37.277Z,57.80
2022-09-04T04:41:52.017Z,57.40
2022-09-04T04:47:03.897Z,57.90
2022-09-04T04:52:32.931Z,57.80
2022-09-04T04:57:48.674Z,57.80
2022-09-04T05:03:01.855Z,57.30
2022-09-04T05:08:16.256Z,57.90
2022-09-04T05:13:26.954Z,58.10
2022-09-04T05:18:33.904Z,57.90
2022-09-04T05:23:46.961Z,57.90
2022-09-04T05:28:59.163Z,58.70
2022-09-04T05:34:09.860Z,59.00
2022-09-04T05:39:27.028Z,59.70
2022-09-04T05:44:46.010Z,58.50
2022-09-04T05:50:21.315Z,58.10
2022-09-04T05:55:55.873Z,57.00
2022-09-04T06:01:08.720Z,55.10
2022-09-04T06:06:20.897Z,53.90
2022-09-04T06:11:47.581Z,52.70
2022-09-04T06:17:01.162Z,52.40
2022-09-04T06:22:35.264Z,53.10
2022-09-04T06:28:08.912Z,53.60
2022-09-04T06:33:33.892Z,54.50
2022-09-04T06:38:53.154Z,54.80
2022-09-04T06:44:03.659Z,54.60
2022-09-04T06:49:15.068Z,53.40
2022-09-04T06:54:35.158Z,52.50
2022-09-04T07:00:02.132Z,51.50
2022-09-04T07:05:18.039Z,49.80
2022-09-04T07:10:25.858Z,49.40
2022-09-04T07:16:03.210Z,48.80
2022-09-04T07:21:13.589Z,47.60
2022-09-04T07:26:24.279Z,47.60
2022-09-04T07:31:35.302Z,46.70
2022-09-04T07:36:43.532Z,46.40
2022-09-04T07:41:54.019Z,46.60
2022-09-04T07:47:05.880Z,46.80
2022-09-04T07:52:18.416Z,46.20
2022-09-04T07:57:49.167Z,46.60
2022-09-04T08:03:07.629Z,46.70
2022-09-04T08:08:42.108Z,46.00
2022-09-04T08:14:09.570Z,45.40
2022-09-04T08:19:29.399Z,45.00
2022-09-04T08:24:49.070Z,45.40
2022-09-04T08:30:04.627Z,45.40
2022-09-04T08:35:17.772Z,44.80
2022-09-04T08:40:50.868Z,44.00
2022-09-04T08:46:30.882Z,43.00
2022-09-04T08:52:16.512Z,43.40
2022-09-04T08:57:56.693Z,42.70
2022-09-04T09:03:37.771Z,43.20
2022-09-04T09:09:27.642Z,42.20
2022-09-04T09:15:00.437Z,42.10
2022-09-04T09:20:20.049Z,42.60
2022-09-04T09:25:27.312Z,42.90
2022-09-04T09:30:43.376Z,42.70
2022-09-04T09:36:18.792Z,41.40
2022-09-04T09:42:02.319Z,41.30
2022-09-04T09:47:27.409Z,41.50
2022-09-04T09:53:04.053Z,41.20
2022-09-04T09:58:45.201Z,41.60
2022-09-04T10:04:24.352Z,39.80
2022-09-04T10:10:08.304Z,40.10
2022-09-04T10:15:53.935Z,39.60
2022-09-04T10:21:41.214Z,39.80
2022-09-04T10:27:23.364Z,39.40
2022-09-04T10:32:56.218Z,39.30
2022-09-04T10:38:29.291Z,40.40
2022-09-04T10:49:25.756Z,39.60
2022-09-04T10:54:54.077Z,39.40
2022-09-04T11:00:08.909Z,39.80
2022-09-04T11:05:31.860Z,39.20
2022-09-04T11:11:03.288Z,38.80
2022-09-04T11:16:23.979Z,38.90
2022-09-04T11:22:15.036Z,39.60
2022-09-04T11:27:53.838Z,38.60
2022-09-04T11:33:37.721Z,38.80
2022-09-04T11:39:09.269Z,38.10
2022-09-04T11:44:58.948Z,38.00
2022-09-04T11:50:23.929Z,37.80
2022-09-04T11:55:52.795Z,38.30
2022-09-04T12:01:08.500Z,38.20
2022-09-04T12:06:31.021Z,39.30
2022-09-04T12:11:59.612Z,38.90
2022-09-04T12:17:26.843Z,39.00
2022-09-04T12:23:07.988Z,38.80
2022-09-04T12:28:38.165Z,37.10
2022-09-04T12:34:06.432Z,38.40
2022-09-04T12:39:37.328Z,37.80
2022-09-04T12:44:55.458Z,38.00
2022-09-04T12:50:16.693Z,38.90
2022-09-04T12:55:29.139Z,38.90
2022-09-04T13:00:49.742Z,37.80
2022-09-04T13:06:19.710Z,37.40
2022-09-04T13:11:39.083Z,36.80
2022-09-04T13:16:54.988Z,37.20
2022-09-04T13:22:14.328Z,37.50
2022-09-04T13:27:28.514Z,36.70
2022-09-04T13:32:51.400Z,37.20
2022-09-04T13:38:17.005Z,37.00
2022-09-04T13:43:58.058Z,37.40
2022-09-04T13:49:08.521Z,37.10
2022-09-04T13:54:17.476Z,37.80
2022-09-04T13:59:22.827Z,37.60
2022-09-04T14:04:31.354Z,37.80
2022-09-04T14:09:39.479Z,37.20
2022-09-04T14:15:21.229Z,37.50
2022-09-04T14:20:30.272Z,37.70
2022-09-04T14:25:41.180Z,38.40
2022-09-04T14:30:56.288Z,38.30
2022-09-04T14:36:11.747Z,38.20
2022-09-04T14:41:26.566Z,38.10
2022-09-04T14:46:39.352Z,38.30
2022-09-04T14:51:46.152Z,38.10
2022-09-04T14:56:50.924Z,38.50
2022-09-04T15:02:28.112Z,38.70
2022-09-04T15:07:53.555Z,39.40
2022-09-04T15:13:21.856Z,39.10
2022-09-04T15:18:30.336Z,39.40
2022-09-04T15:23:39.199Z,40.00
2022-09-04T15:28:47.755Z,39.80
2022-09-04T15:33:58.930Z,40.10
2022-09-04T15:39:06.525Z,40.20
2022-09-04T15:44:18.025Z,40.10
2022-09-04T15:49:39.353Z,40.60
2022-09-04T15:55:20.294Z,40.50
2022-09-04T16:00:25.199Z,40.40
2022-09-04T16:05:38.454Z,40.70
2022-09-04T16:10:50.513Z,41.30
2022-09-04T16:16:03.509Z,41.90
2022-09-04T16:21:16.206Z,41.40
2022-09-04T16:26:26.944Z,41.70
2022-09-04T16:31:32.192Z,41.90
2022-09-04T16:36:41.103Z,41.90
2022-09-04T16:41:50.740Z,42.00
2022-09-04T16:46:57.952Z,42.00
2022-09-04T16:52:20.437Z,42.10
2022-09-04T16:57:33.247Z,42.50
2022-09-04T17:02:44.552Z,42.30
2022-09-04T17:07:53.473Z,42.20
2022-09-04T17:13:07.183Z,42.10
2022-09-04T17:18:14.448Z,42.50
2022-09-04T17:29:04.759Z,42.40
2022-09-04T17:29:33.727Z,42.70
2022-09-04T17:40:35.546Z,42.80
2022-09-04T17:40:49.126Z,42.90
2022-09-04T17:45:56.696Z,43.00
2022-09-04T17:51:02.276Z,43.40
2022-09-04T17:56:16.638Z,43.20
2022-09-04T18:01:26.003Z,43.70
2022-09-04T18:06:39.645Z,44.00
2022-09-04T18:12:00.149Z,44.20
2022-09-04T18:17:13.043Z,44.30
2022-09-04T18:22:33.176Z,44.60
2022-09-04T18:27:39.864Z,44.90
2022-09-04T18:37:20.410Z,45.10
2022-09-04T18:38:20.041Z,45.40
2022-09-04T18:50:23.894Z,45.60
2022-09-04T18:50:44.118Z,46.00
2022-09-04T18:54:35.587Z,46.90
2022-09-04T19:00:08.334Z,46.60
2022-09-04T19:05:44.284Z,47.60
2022-09-04T19:10:52.630Z,47.90
2022-09-04T19:16:05.969Z,47.80
2022-09-04T19:21:21.592Z,49.40
2022-09-04T19:26:34.536Z,49.70
2022-09-04T19:31:51.796Z,49.80
2022-09-04T19:37:26.053Z,51.30
2022-09-04T19:45:57.331Z,51.70
2022-09-04T19:48:00.152Z,51.20
2022-09-04T19:53:38.745Z,52.00
2022-09-04T19:58:53.087Z,53.00
2022-09-04T20:04:05.456Z,53.10
2022-09-04T20:09:18.363Z,53.10
2022-09-04T20:14:26.784Z,54.30
2022-09-04T20:19:39.203Z,54.30
2022-09-04T20:25:01.354Z,54.70
2022-09-04T20:30:09.132Z,54.50
2022-09-04T20:35:20.478Z,54.50
2022-09-04T20:40:42.421Z,55.00
2022-09-04T20:46:54.074Z,55.00
2022-09-04T20:53:00.199Z,55.10
2022-09-04T21:00:02.719Z,55.00
2022-09-04T21:03:11.326Z,54.70
2022-09-04T21:07:53.422Z,54.90
2022-09-04T21:13:14.283Z,55.00
2022-09-04T21:18:48.633Z,54.40
2022-09-04T21:24:38.139Z,54.40
2022-09-04T21:29:59.854Z,54.50
2022-09-04T21:35:12.526Z,54.50
2022-09-04T21:40:51.482Z,53.80
2022-09-04T21:46:12.870Z,55.10
2022-09-04T21:51:36.515Z,53.80
2022-09-04T22:02:26.112Z,53.80
2022-09-04T22:02:59.244Z,53.80
2022-09-04T22:12:22.375Z,53.80
2022-09-04T22:13:55.329Z,53.80
2022-09-04T22:19:16.219Z,54.40
2022-09-04T22:25:00.448Z,55.10
2022-09-04T22:30:08.163Z,55.50
2022-09-04T22:35:56.298Z,55.90
2022-09-04T22:41:29.696Z,56.30
2022-09-04T22:46:58.762Z,56.80
2022-09-04T22:52:38.705Z,57.40
2022-09-04T22:57:56.848Z,58.20
2022-09-04T23:03:40.818Z,58.30
2022-09-04T23:13:47.201Z,58.20
2022-09-04T23:15:08.352Z,59.20
2022-09-04T23:26:33.436Z,60.00
2022-09-04T23:27:00.048Z,59.30
2022-09-04T23:32:26.457Z,59.40
2022-09-04T23:38:02.550Z,60.00
2022-09-04T23:43:53.805Z,59.40
2022-09-04T23:49:24.741Z,59.50
2022-09-04T23:55:03.498Z,60.10
